sensor_id;sensor_type;location;lat;lon;timestamp;P1;durP1;ratioP1;P2;durP2;ratioP2
10729;SDS011;5416;59.258;18.128;2023-07-29T00:00:52;3.88;;;3.78;;
10729;SDS011;5416;59.258;18.128;2023-07-29T00:03:21;4.18;;;4.07;;
10729;SDS011;5416;59.258;18.128;2023-07-29T00:05:48;4.10;;;4.00;;
10729;SDS011;5416;59.258;18.128;2023-07-29T00:08:16;3.90;;;3.80;;
10729;SDS011;5416;59.258;18.128;2023-07-29T00:10:43;3.40;;;3.30;;
10729;SDS011;5416;59.258;18.128;2023-07-29T00:13:10;4.13;;;4.03;;
10729;SDS011;5416;59.258;18.128;2023-07-29T00:15:37;3.80;;;3.70;;
10729;SDS011;5416;59.258;18.128;2023-07-29T00:18:06;3.45;;;3.35;;
10729;SDS011;5416;59.258;18.128;2023-07-29T00:20:33;3.88;;;3.78;;
10729;SDS011;5416;59.258;18.128;2023-07-29T00:23:01;3.83;;;3.73;;
10729;SDS011;5416;59.258;18.128;2023-07-29T00:25:28;3.70;;;3.60;;
10729;SDS011;5416;59.258;18.128;2023-07-29T00:27:55;4.23;;;4.13;;
10729;SDS011;5416;59.258;18.128;2023-07-29T00:30:23;3.65;;;3.55;;
10729;SDS011;5416;59.258;18.128;2023-07-29T00:32:50;3.58;;;3.47;;
10729;SDS011;5416;59.258;18.128;2023-07-29T00:35:19;4.50;;;4.40;;
10729;SDS011;5416;59.258;18.128;2023-07-29T00:37:46;4.30;;;4.20;;
10729;SDS011;5416;59.258;18.128;2023-07-29T00:40:15;3.75;;;3.65;;
10729;SDS011;5416;59.258;18.128;2023-07-29T00:42:42;4.03;;;3.92;;
10729;SDS011;5416;59.258;18.128;2023-07-29T00:45:09;3.83;;;3.72;;
10729;SDS011;5416;59.258;18.128;2023-07-29T00:47:37;4.10;;;4.00;;
10729;SDS011;5416;59.258;18.128;2023-07-29T00:50:05;3.92;;;3.83;;
10729;SDS011;5416;59.258;18.128;2023-07-29T00:52:34;4.00;;;3.90;;
10729;SDS011;5416;59.258;18.128;2023-07-29T00:55:01;4.30;;;4.20;;
10729;SDS011;5416;59.258;18.128;2023-07-29T00:57:29;3.58;;;3.47;;
10729;SDS011;5416;59.258;18.128;2023-07-29T00:59:56;3.53;;;3.42;;
10729;SDS011;5416;59.258;18.128;2023-07-29T01:02:24;4.38;;;4.28;;
10729;SDS011;5416;59.258;18.128;2023-07-29T01:04:52;3.70;;;3.60;;
10729;SDS011;5416;59.258;18.128;2023-07-29T01:07:21;4.20;;;4.10;;
10729;SDS011;5416;59.258;18.128;2023-07-29T01:09:53;3.50;;;3.40;;
10729;SDS011;5416;59.258;18.128;2023-07-29T01:12:24;4.32;;;4.22;;
10729;SDS011;5416;59.258;18.128;2023-07-29T01:14:55;3.92;;;3.83;;
10729;SDS011;5416;59.258;18.128;2023-07-29T01:17:25;3.72;;;3.63;;
10729;SDS011;5416;59.258;18.128;2023-07-29T01:19:57;4.75;;;4.55;;
10729;SDS011;5416;59.258;18.128;2023-07-29T01:22:28;3.85;;;3.75;;
10729;SDS011;5416;59.258;18.128;2023-07-29T01:24:59;4.00;;;3.90;;
10729;SDS011;5416;59.258;18.128;2023-07-29T01:27:26;4.07;;;3.97;;
10729;SDS011;5416;59.258;18.128;2023-07-29T01:29:54;3.40;;;3.30;;
10729;SDS011;5416;59.258;18.128;2023-07-29T01:32:23;4.00;;;3.90;;
10729;SDS011;5416;59.258;18.128;2023-07-29T01:34:53;3.65;;;3.55;;
10729;SDS011;5416;59.258;18.128;2023-07-29T01:37:26;3.73;;;3.63;;
10729;SDS011;5416;59.258;18.128;2023-07-29T01:39:54;4.28;;;4.18;;
10729;SDS011;5416;59.258;18.128;2023-07-29T01:42:25;3.42;;;3.33;;
10729;SDS011;5416;59.258;18.128;2023-07-29T01:44:52;4.20;;;4.10;;
10729;SDS011;5416;59.258;18.128;2023-07-29T01:47:20;3.90;;;3.80;;
10729;SDS011;5416;59.258;18.128;2023-07-29T01:49:48;3.28;;;3.17;;
10729;SDS011;5416;59.258;18.128;2023-07-29T01:52:15;3.97;;;3.88;;
10729;SDS011;5416;59.258;18.128;2023-07-29T01:54:43;3.97;;;3.88;;
10729;SDS011;5416;59.258;18.128;2023-07-29T01:57:10;3.42;;;3.33;;
10729;SDS011;5416;59.258;18.128;2023-07-29T01:59:39;4.25;;;4.15;;
10729;SDS011;5416;59.258;18.128;2023-07-29T02:02:06;3.58;;;3.47;;
10729;SDS011;5416;59.258;18.128;2023-07-29T02:04:34;3.75;;;3.65;;
10729;SDS011;5416;59.258;18.128;2023-07-29T02:07:01;3.80;;;3.70;;
10729;SDS011;5416;59.258;18.128;2023-07-29T02:09:28;3.42;;;3.33;;
10729;SDS011;5416;59.258;18.128;2023-07-29T02:11:56;4.20;;;4.10;;
10729;SDS011;5416;59.258;18.128;2023-07-29T02:14:24;3.70;;;3.60;;
10729;SDS011;5416;59.258;18.128;2023-07-29T02:16:52;3.80;;;3.70;;
10729;SDS011;5416;59.258;18.128;2023-07-29T02:19:20;3.90;;;3.80;;
10729;SDS011;5416;59.258;18.128;2023-07-29T02:21:47;3.72;;;3.63;;
10729;SDS011;5416;59.258;18.128;2023-07-29T02:24:14;4.10;;;4.00;;
10729;SDS011;5416;59.258;18.128;2023-07-29T02:26:41;3.88;;;3.78;;
10729;SDS011;5416;59.258;18.128;2023-07-29T02:29:09;3.58;;;3.47;;
10729;SDS011;5416;59.258;18.128;2023-07-29T02:31:36;4.03;;;3.92;;
10729;SDS011;5416;59.258;18.128;2023-07-29T02:34:05;3.75;;;3.65;;
10729;SDS011;5416;59.258;18.128;2023-07-29T02:36:32;3.58;;;3.47;;
10729;SDS011;5416;59.258;18.128;2023-07-29T02:38:59;4.10;;;4.00;;
10729;SDS011;5416;59.258;18.128;2023-07-29T02:41:27;3.67;;;3.58;;
10729;SDS011;5416;59.258;18.128;2023-07-29T02:43:54;3.63;;;3.53;;
10729;SDS011;5416;59.258;18.128;2023-07-29T02:46:21;4.50;;;4.40;;
10729;SDS011;5416;59.258;18.128;2023-07-29T02:48:49;3.72;;;3.63;;
10729;SDS011;5416;59.258;18.128;2023-07-29T02:51:18;3.70;;;3.60;;
10729;SDS011;5416;59.258;18.128;2023-07-29T02:53:45;3.75;;;3.65;;
10729;SDS011;5416;59.258;18.128;2023-07-29T02:56:12;3.40;;;3.30;;
10729;SDS011;5416;59.258;18.128;2023-07-29T02:58:39;3.92;;;3.83;;
10729;SDS011;5416;59.258;18.128;2023-07-29T03:01:07;4.05;;;3.95;;
10729;SDS011;5416;59.258;18.128;2023-07-29T03:03:34;3.70;;;3.60;;
10729;SDS011;5416;59.258;18.128;2023-07-29T03:06:02;3.57;;;3.47;;
10729;SDS011;5416;59.258;18.128;2023-07-29T03:08:31;3.67;;;3.58;;
10729;SDS011;5416;59.258;18.128;2023-07-29T03:10:59;3.72;;;3.63;;
10729;SDS011;5416;59.258;18.128;2023-07-29T03:13:31;4.10;;;4.00;;
10729;SDS011;5416;59.258;18.128;2023-07-29T03:16:04;3.70;;;3.60;;
10729;SDS011;5416;59.258;18.128;2023-07-29T03:18:31;4.00;;;3.90;;
10729;SDS011;5416;59.258;18.128;2023-07-29T03:20:58;4.15;;;4.05;;
10729;SDS011;5416;59.258;18.128;2023-07-29T03:23:26;3.20;;;3.10;;
10729;SDS011;5416;59.258;18.128;2023-07-29T03:25:55;4.03;;;3.92;;
10729;SDS011;5416;59.258;18.128;2023-07-29T03:28:23;3.35;;;3.25;;
10729;SDS011;5416;59.258;18.128;2023-07-29T03:30:51;3.70;;;3.60;;
10729;SDS011;5416;59.258;18.128;2023-07-29T03:33:18;3.77;;;3.67;;
10729;SDS011;5416;59.258;18.128;2023-07-29T03:35:45;3.80;;;3.70;;
10729;SDS011;5416;59.258;18.128;2023-07-29T03:38:13;4.07;;;3.97;;
10729;SDS011;5416;59.258;18.128;2023-07-29T03:40:40;3.90;;;3.80;;
10729;SDS011;5416;59.258;18.128;2023-07-29T03:43:09;4.20;;;4.10;;
10729;SDS011;5416;59.258;18.128;2023-07-29T03:45:36;3.72;;;3.63;;
10729;SDS011;5416;59.258;18.128;2023-07-29T03:48:04;3.95;;;3.85;;
10729;SDS011;5416;59.258;18.128;2023-07-29T03:50:33;3.85;;;3.75;;
10729;SDS011;5416;59.258;18.128;2023-07-29T03:53:00;3.63;;;3.53;;
10729;SDS011;5416;59.258;18.128;2023-07-29T03:55:27;3.53;;;3.42;;
10729;SDS011;5416;59.258;18.128;2023-07-29T03:57:56;3.33;;;3.22;;
10729;SDS011;5416;59.258;18.128;2023-07-29T04:00:25;3.28;;;3.17;;
10729;SDS011;5416;59.258;18.128;2023-07-29T04:02:52;3.50;;;3.40;;
10729;SDS011;5416;59.258;18.128;2023-07-29T04:05:19;3.65;;;3.55;;
10729;SDS011;5416;59.258;18.128;2023-07-29T04:07:47;3.85;;;3.75;;
10729;SDS011;5416;59.258;18.128;2023-07-29T04:10:14;3.45;;;3.35;;
10729;SDS011;5416;59.258;18.128;2023-07-29T04:12:42;3.75;;;3.65;;
10729;SDS011;5416;59.258;18.128;2023-07-29T04:15:10;3.50;;;3.40;;
10729;SDS011;5416;59.258;18.128;2023-07-29T04:17:38;4.10;;;4.00;;
10729;SDS011;5416;59.258;18.128;2023-07-29T04:20:06;3.67;;;3.58;;
10729;SDS011;5416;59.258;18.128;2023-07-29T04:22:33;4.03;;;3.92;;
10729;SDS011;5416;59.258;18.128;2023-07-29T04:25:01;3.85;;;3.75;;
10729;SDS011;5416;59.258;18.128;2023-07-29T04:27:29;3.37;;;3.27;;
10729;SDS011;5416;59.258;18.128;2023-07-29T04:29:57;3.70;;;3.60;;
10729;SDS011;5416;59.258;18.128;2023-07-29T04:32:24;3.70;;;3.60;;
10729;SDS011;5416;59.258;18.128;2023-07-29T04:34:53;3.60;;;3.50;;
10729;SDS011;5416;59.258;18.128;2023-07-29T04:37:20;3.83;;;3.72;;
10729;SDS011;5416;59.258;18.128;2023-07-29T04:39:48;3.58;;;3.47;;
10729;SDS011;5416;59.258;18.128;2023-07-29T04:42:15;3.20;;;3.10;;
10729;SDS011;5416;59.258;18.128;2023-07-29T04:44:42;3.88;;;3.78;;
10729;SDS011;5416;59.258;18.128;2023-07-29T04:47:10;3.40;;;3.30;;
10729;SDS011;5416;59.258;18.128;2023-07-29T04:49:37;3.50;;;3.40;;
10729;SDS011;5416;59.258;18.128;2023-07-29T04:52:06;3.33;;;3.22;;
10729;SDS011;5416;59.258;18.128;2023-07-29T04:54:33;3.45;;;3.35;;
10729;SDS011;5416;59.258;18.128;2023-07-29T04:57:01;3.57;;;3.47;;
10729;SDS011;5416;59.258;18.128;2023-07-29T04:59:28;3.53;;;3.42;;
10729;SDS011;5416;59.258;18.128;2023-07-29T05:01:55;3.63;;;3.53;;
10729;SDS011;5416;59.258;18.128;2023-07-29T05:04:23;3.90;;;3.80;;
10729;SDS011;5416;59.258;18.128;2023-07-29T05:06:50;3.58;;;3.47;;
10729;SDS011;5416;59.258;18.128;2023-07-29T05:09:19;3.60;;;3.50;;
10729;SDS011;5416;59.258;18.128;2023-07-29T05:11:47;3.42;;;3.33;;
10729;SDS011;5416;59.258;18.128;2023-07-29T05:14:15;4.10;;;4.00;;
10729;SDS011;5416;59.258;18.128;2023-07-29T05:16:43;3.90;;;3.80;;
10729;SDS011;5416;59.258;18.128;2023-07-29T05:19:10;3.67;;;3.58;;
10729;SDS011;5416;59.258;18.128;2023-07-29T05:21:38;3.88;;;3.78;;
10729;SDS011;5416;59.258;18.128;2023-07-29T05:24:05;3.20;;;3.10;;
10729;SDS011;5416;59.258;18.128;2023-07-29T05:26:34;3.33;;;3.23;;
10729;SDS011;5416;59.258;18.128;2023-07-29T05:29:01;3.25;;;3.15;;
10729;SDS011;5416;59.258;18.128;2023-07-29T05:31:29;3.08;;;2.97;;
10729;SDS011;5416;59.258;18.128;2023-07-29T05:33:56;3.35;;;3.25;;
10729;SDS011;5416;59.258;18.128;2023-07-29T05:36:23;3.55;;;3.45;;
10729;SDS011;5416;59.258;18.128;2023-07-29T05:38:51;3.40;;;3.30;;
10729;SDS011;5416;59.258;18.128;2023-07-29T05:41:19;3.20;;;3.10;;
10729;SDS011;5416;59.258;18.128;2023-07-29T05:43:47;3.15;;;3.05;;
10729;SDS011;5416;59.258;18.128;2023-07-29T05:46:15;3.00;;;2.90;;
10729;SDS011;5416;59.258;18.128;2023-07-29T05:48:42;3.30;;;3.20;;
10729;SDS011;5416;59.258;18.128;2023-07-29T05:51:09;3.08;;;2.97;;
10729;SDS011;5416;59.258;18.128;2023-07-29T05:53:37;3.30;;;3.20;;
10729;SDS011;5416;59.258;18.128;2023-07-29T05:56:04;3.63;;;3.53;;
10729;SDS011;5416;59.258;18.128;2023-07-29T05:58:31;3.30;;;3.20;;
10729;SDS011;5416;59.258;18.128;2023-07-29T06:01:00;3.40;;;3.30;;
10729;SDS011;5416;59.258;18.128;2023-07-29T06:03:27;2.92;;;2.83;;
10729;SDS011;5416;59.258;18.128;2023-07-29T06:05:54;2.97;;;2.88;;
10729;SDS011;5416;59.258;18.128;2023-07-29T06:08:22;3.20;;;3.10;;
10729;SDS011;5416;59.258;18.128;2023-07-29T06:10:49;3.35;;;3.25;;
10729;SDS011;5416;59.258;18.128;2023-07-29T06:13:17;3.25;;;3.15;;
10729;SDS011;5416;59.258;18.128;2023-07-29T06:15:44;3.10;;;3.00;;
10729;SDS011;5416;59.258;18.128;2023-07-29T06:18:13;3.03;;;2.92;;
10729;SDS011;5416;59.258;18.128;2023-07-29T06:20:40;3.10;;;3.00;;
10729;SDS011;5416;59.258;18.128;2023-07-29T06:23:07;2.90;;;2.80;;
10729;SDS011;5416;59.258;18.128;2023-07-29T06:25:35;2.93;;;2.83;;
10729;SDS011;5416;59.258;18.128;2023-07-29T06:28:02;3.20;;;3.10;;
10729;SDS011;5416;59.258;18.128;2023-07-29T06:30:29;3.13;;;3.03;;
10729;SDS011;5416;59.258;18.128;2023-07-29T06:32:57;2.95;;;2.85;;
10729;SDS011;5416;59.258;18.128;2023-07-29T06:35:25;3.20;;;3.10;;
10729;SDS011;5416;59.258;18.128;2023-07-29T06:37:53;3.15;;;3.05;;
10729;SDS011;5416;59.258;18.128;2023-07-29T06:40:20;3.00;;;2.90;;
10729;SDS011;5416;59.258;18.128;2023-07-29T06:42:47;3.25;;;3.15;;
10729;SDS011;5416;59.258;18.128;2023-07-29T06:45:15;3.00;;;2.90;;
10729;SDS011;5416;59.258;18.128;2023-07-29T06:47:42;2.50;;;2.40;;
10729;SDS011;5416;59.258;18.128;2023-07-29T06:50:09;2.78;;;2.67;;
10729;SDS011;5416;59.258;18.128;2023-07-29T06:52:38;2.70;;;2.60;;
10729;SDS011;5416;59.258;18.128;2023-07-29T06:55:06;2.80;;;2.70;;
10729;SDS011;5416;59.258;18.128;2023-07-29T06:57:33;2.63;;;2.53;;
10729;SDS011;5416;59.258;18.128;2023-07-29T07:00:01;2.57;;;2.47;;
10729;SDS011;5416;59.258;18.128;2023-07-29T07:02:28;2.60;;;2.50;;
10729;SDS011;5416;59.258;18.128;2023-07-29T07:04:55;2.70;;;2.60;;
10729;SDS011;5416;59.258;18.128;2023-07-29T07:07:23;2.70;;;2.60;;
10729;SDS011;5416;59.258;18.128;2023-07-29T07:09:51;2.80;;;2.70;;
10729;SDS011;5416;59.258;18.128;2023-07-29T07:12:19;2.30;;;2.20;;
10729;SDS011;5416;59.258;18.128;2023-07-29T07:14:46;2.70;;;2.60;;
10729;SDS011;5416;59.258;18.128;2023-07-29T07:17:13;2.90;;;2.80;;
10729;SDS011;5416;59.258;18.128;2023-07-29T07:19:41;2.60;;;2.50;;
10729;SDS011;5416;59.258;18.128;2023-07-29T07:22:08;2.50;;;2.40;;
10729;SDS011;5416;59.258;18.128;2023-07-29T07:24:35;2.50;;;2.40;;
10729;SDS011;5416;59.258;18.128;2023-07-29T07:27:04;2.25;;;2.15;;
10729;SDS011;5416;59.258;18.128;2023-07-29T07:29:31;2.10;;;2.03;;
10729;SDS011;5416;59.258;18.128;2023-07-29T07:31:59;2.25;;;2.15;;
10729;SDS011;5416;59.258;18.128;2023-07-29T07:34:26;2.25;;;2.15;;
10729;SDS011;5416;59.258;18.128;2023-07-29T07:36:53;2.30;;;2.20;;
10729;SDS011;5416;59.258;18.128;2023-07-29T07:39:21;2.30;;;2.20;;
10729;SDS011;5416;59.258;18.128;2023-07-29T07:41:48;2.28;;;2.17;;
10729;SDS011;5416;59.258;18.128;2023-07-29T07:44:16;2.20;;;2.10;;
10729;SDS011;5416;59.258;18.128;2023-07-29T07:46:44;2.30;;;2.20;;
10729;SDS011;5416;59.258;18.128;2023-07-29T07:49:12;2.28;;;2.17;;
10729;SDS011;5416;59.258;18.128;2023-07-29T07:51:39;2.00;;;2.00;;
10729;SDS011;5416;59.258;18.128;2023-07-29T07:54:06;2.40;;;2.30;;
10729;SDS011;5416;59.258;18.128;2023-07-29T07:56:34;2.03;;;2.00;;
10729;SDS011;5416;59.258;18.128;2023-07-29T07:59:01;2.08;;;2.08;;
10729;SDS011;5416;59.258;18.128;2023-07-29T08:01:30;2.20;;;2.10;;
10729;SDS011;5416;59.258;18.128;2023-07-29T08:04:00;2.20;;;2.10;;
10729;SDS011;5416;59.258;18.128;2023-07-29T08:06:28;2.20;;;2.10;;
10729;SDS011;5416;59.258;18.128;2023-07-29T08:08:55;2.05;;;2.05;;
10729;SDS011;5416;59.258;18.128;2023-07-29T08:11:22;2.20;;;2.10;;
10729;SDS011;5416;59.258;18.128;2023-07-29T08:13:49;2.10;;;2.08;;
10729;SDS011;5416;59.258;18.128;2023-07-29T08:16:17;2.03;;;2.03;;
10729;SDS011;5416;59.258;18.128;2023-07-29T08:18:45;2.13;;;2.10;;
10729;SDS011;5416;59.258;18.128;2023-07-29T08:21:13;2.03;;;2.03;;
10729;SDS011;5416;59.258;18.128;2023-07-29T08:23:41;1.90;;;1.90;;
10729;SDS011;5416;59.258;18.128;2023-07-29T08:26:08;1.95;;;1.95;;
10729;SDS011;5416;59.258;18.128;2023-07-29T08:28:36;2.10;;;2.10;;
10729;SDS011;5416;59.258;18.128;2023-07-29T08:31:03;2.00;;;2.00;;
10729;SDS011;5416;59.258;18.128;2023-07-29T08:33:31;1.90;;;1.90;;
10729;SDS011;5416;59.258;18.128;2023-07-29T08:36:01;2.30;;;2.20;;
10729;SDS011;5416;59.258;18.128;2023-07-29T08:38:28;1.90;;;1.90;;
10729;SDS011;5416;59.258;18.128;2023-07-29T08:40:57;1.90;;;1.90;;
10729;SDS011;5416;59.258;18.128;2023-07-29T08:43:27;2.20;;;2.10;;
10729;SDS011;5416;59.258;18.128;2023-07-29T08:45:56;2.20;;;2.10;;
10729;SDS011;5416;59.258;18.128;2023-07-29T08:48:32;2.30;;;2.20;;
10729;SDS011;5416;59.258;18.128;2023-07-29T08:51:01;2.00;;;2.00;;
10729;SDS011;5416;59.258;18.128;2023-07-29T08:53:30;2.25;;;2.15;;
10729;SDS011;5416;59.258;18.128;2023-07-29T08:55:58;2.25;;;2.15;;
10729;SDS011;5416;59.258;18.128;2023-07-29T08:58:25;2.13;;;2.07;;
10729;SDS011;5416;59.258;18.128;2023-07-29T09:00:53;2.00;;;2.00;;
10729;SDS011;5416;59.258;18.128;2023-07-29T09:03:20;2.08;;;1.98;;
10729;SDS011;5416;59.258;18.128;2023-07-29T09:05:48;1.92;;;1.92;;
10729;SDS011;5416;59.258;18.128;2023-07-29T09:08:17;2.20;;;2.10;;
10729;SDS011;5416;59.258;18.128;2023-07-29T09:10:44;2.00;;;2.00;;
10729;SDS011;5416;59.258;18.128;2023-07-29T09:13:12;2.10;;;2.00;;
10729;SDS011;5416;59.258;18.128;2023-07-29T09:15:41;2.17;;;2.10;;
10729;SDS011;5416;59.258;18.128;2023-07-29T09:18:09;1.92;;;1.92;;
10729;SDS011;5416;59.258;18.128;2023-07-29T09:20:36;2.15;;;2.08;;
10729;SDS011;5416;59.258;18.128;2023-07-29T09:23:06;2.20;;;2.10;;
10729;SDS011;5416;59.258;18.128;2023-07-29T09:25:35;1.90;;;1.90;;
10729;SDS011;5416;59.258;18.128;2023-07-29T09:28:07;2.00;;;1.90;;
10729;SDS011;5416;59.258;18.128;2023-07-29T09:30:34;1.70;;;1.70;;
10729;SDS011;5416;59.258;18.128;2023-07-29T09:33:02;1.75;;;1.75;;
10729;SDS011;5416;59.258;18.128;2023-07-29T09:35:30;1.95;;;1.95;;
10729;SDS011;5416;59.258;18.128;2023-07-29T09:37:57;2.20;;;2.10;;
10729;SDS011;5416;59.258;18.128;2023-07-29T09:40:24;2.08;;;2.00;;
10729;SDS011;5416;59.258;18.128;2023-07-29T09:42:54;1.90;;;1.90;;
10729;SDS011;5416;59.258;18.128;2023-07-29T09:45:22;1.83;;;1.83;;
10729;SDS011;5416;59.258;18.128;2023-07-29T09:47:49;1.70;;;1.70;;
10729;SDS011;5416;59.258;18.128;2023-07-29T09:50:17;1.70;;;1.70;;
10729;SDS011;5416;59.258;18.128;2023-07-29T09:52:44;1.90;;;1.90;;
10729;SDS011;5416;59.258;18.128;2023-07-29T09:55:13;1.80;;;1.80;;
10729;SDS011;5416;59.258;18.128;2023-07-29T09:57:44;1.80;;;1.80;;
10729;SDS011;5416;59.258;18.128;2023-07-29T10:00:13;1.88;;;1.88;;
10729;SDS011;5416;59.258;18.128;2023-07-29T10:02:42;1.80;;;1.80;;
10729;SDS011;5416;59.258;18.128;2023-07-29T10:05:09;1.85;;;1.85;;
10729;SDS011;5416;59.258;18.128;2023-07-29T10:07:37;2.00;;;2.00;;
10729;SDS011;5416;59.258;18.128;2023-07-29T10:10:05;1.90;;;1.90;;
10729;SDS011;5416;59.258;18.128;2023-07-29T10:12:34;2.17;;;2.10;;
10729;SDS011;5416;59.258;18.128;2023-07-29T10:15:02;2.00;;;2.00;;
10729;SDS011;5416;59.258;18.128;2023-07-29T10:17:31;2.38;;;2.28;;
10729;SDS011;5416;59.258;18.128;2023-07-29T10:20:00;2.40;;;2.30;;
10729;SDS011;5416;59.258;18.128;2023-07-29T10:22:28;2.30;;;2.20;;
10729;SDS011;5416;59.258;18.128;2023-07-29T10:24:56;2.30;;;2.20;;
10729;SDS011;5416;59.258;18.128;2023-07-29T10:27:26;2.33;;;2.23;;
10729;SDS011;5416;59.258;18.128;2023-07-29T10:29:55;2.00;;;2.00;;
10729;SDS011;5416;59.258;18.128;2023-07-29T10:32:23;2.30;;;2.20;;
10729;SDS011;5416;59.258;18.128;2023-07-29T10:34:53;2.22;;;2.13;;
10729;SDS011;5416;59.258;18.128;2023-07-29T10:37:20;2.30;;;2.20;;
10729;SDS011;5416;59.258;18.128;2023-07-29T10:39:57;2.50;;;2.40;;
10729;SDS011;5416;59.258;18.128;2023-07-29T10:42:24;2.60;;;2.50;;
10729;SDS011;5416;59.258;18.128;2023-07-29T10:44:52;2.33;;;2.22;;
10729;SDS011;5416;59.258;18.128;2023-07-29T10:47:20;2.35;;;2.25;;
10729;SDS011;5416;59.258;18.128;2023-07-29T10:49:49;2.42;;;2.33;;
10729;SDS011;5416;59.258;18.128;2023-07-29T10:52:27;2.38;;;2.28;;
10729;SDS011;5416;59.258;18.128;2023-07-29T10:54:54;2.70;;;2.60;;
10729;SDS011;5416;59.258;18.128;2023-07-29T10:57:29;2.70;;;2.60;;
10729;SDS011;5416;59.258;18.128;2023-07-29T10:59:57;2.70;;;2.60;;
10729;SDS011;5416;59.258;18.128;2023-07-29T11:02:28;2.40;;;2.30;;
10729;SDS011;5416;59.258;18.128;2023-07-29T11:04:55;2.75;;;2.65;;
10729;SDS011;5416;59.258;18.128;2023-07-29T11:07:27;2.72;;;2.63;;
10729;SDS011;5416;59.258;18.128;2023-07-29T11:09:55;2.70;;;2.60;;
10729;SDS011;5416;59.258;18.128;2023-07-29T11:12:39;3.40;;;3.30;;
10729;SDS011;5416;59.258;18.128;2023-07-29T11:15:14;3.40;;;3.30;;
10729;SDS011;5416;59.258;18.128;2023-07-29T11:17:42;3.17;;;3.08;;
10729;SDS011;5416;59.258;18.128;2023-07-29T11:20:10;3.27;;;3.17;;
10729;SDS011;5416;59.258;18.128;2023-07-29T11:22:39;3.35;;;3.25;;
10729;SDS011;5416;59.258;18.128;2023-07-29T11:25:07;3.20;;;3.10;;
10729;SDS011;5416;59.258;18.128;2023-07-29T11:27:35;3.22;;;3.13;;
10729;SDS011;5416;59.258;18.128;2023-07-29T11:30:03;3.10;;;3.00;;
10729;SDS011;5416;59.258;18.128;2023-07-29T11:32:31;3.00;;;2.90;;
10729;SDS011;5416;59.258;18.128;2023-07-29T11:35:01;3.00;;;2.90;;
10729;SDS011;5416;59.258;18.128;2023-07-29T11:37:28;3.10;;;3.00;;
10729;SDS011;5416;59.258;18.128;2023-07-29T11:39:57;3.00;;;2.90;;
10729;SDS011;5416;59.258;18.128;2023-07-29T11:42:25;2.60;;;2.50;;
10729;SDS011;5416;59.258;18.128;2023-07-29T11:44:53;3.10;;;3.00;;
10729;SDS011;5416;59.258;18.128;2023-07-29T11:47:20;2.90;;;2.80;;
10729;SDS011;5416;59.258;18.128;2023-07-29T11:49:47;2.83;;;2.73;;
10729;SDS011;5416;59.258;18.128;2023-07-29T11:52:14;2.70;;;2.60;;
10729;SDS011;5416;59.258;18.128;2023-07-29T11:54:44;2.50;;;2.40;;
10729;SDS011;5416;59.258;18.128;2023-07-29T11:57:13;2.58;;;2.47;;
10729;SDS011;5416;59.258;18.128;2023-07-29T11:59:40;2.72;;;2.63;;
10729;SDS011;5416;59.258;18.128;2023-07-29T12:02:09;2.85;;;2.75;;
10729;SDS011;5416;59.258;18.128;2023-07-29T12:04:37;2.50;;;2.40;;
10729;SDS011;5416;59.258;18.128;2023-07-29T12:07:05;2.67;;;2.58;;
10729;SDS011;5416;59.258;18.128;2023-07-29T12:09:32;2.65;;;2.55;;
10729;SDS011;5416;59.258;18.128;2023-07-29T12:12:00;2.83;;;2.73;;
10729;SDS011;5416;59.258;18.128;2023-07-29T12:14:29;2.58;;;2.47;;
10729;SDS011;5416;59.258;18.128;2023-07-29T12:16:56;2.53;;;2.42;;
10729;SDS011;5416;59.258;18.128;2023-07-29T12:19:31;3.20;;;3.10;;
10729;SDS011;5416;59.258;18.128;2023-07-29T12:21:58;3.35;;;3.25;;
10729;SDS011;5416;59.258;18.128;2023-07-29T12:24:25;3.20;;;3.10;;
10729;SDS011;5416;59.258;18.128;2023-07-29T12:26:52;3.65;;;3.55;;
10729;SDS011;5416;59.258;18.128;2023-07-29T12:29:20;4.03;;;3.92;;
10729;SDS011;5416;59.258;18.128;2023-07-29T12:31:49;4.20;;;4.10;;
10729;SDS011;5416;59.258;18.128;2023-07-29T12:34:24;4.00;;;3.90;;
10729;SDS011;5416;59.258;18.128;2023-07-29T12:36:52;3.75;;;3.65;;
10729;SDS011;5416;59.258;18.128;2023-07-29T12:39:21;3.38;;;3.28;;
10729;SDS011;5416;59.258;18.128;2023-07-29T12:41:49;3.50;;;3.40;;
10729;SDS011;5416;59.258;18.128;2023-07-29T12:44:17;3.65;;;3.55;;
10729;SDS011;5416;59.258;18.128;2023-07-29T12:46:44;3.47;;;3.38;;
10729;SDS011;5416;59.258;18.128;2023-07-29T12:49:13;3.17;;;3.07;;
10729;SDS011;5416;59.258;18.128;2023-07-29T12:51:40;3.30;;;3.20;;
10729;SDS011;5416;59.258;18.128;2023-07-29T12:54:08;3.50;;;3.40;;
10729;SDS011;5416;59.258;18.128;2023-07-29T12:56:36;3.67;;;3.58;;
10729;SDS011;5416;59.258;18.128;2023-07-29T12:59:03;3.43;;;3.33;;
10729;SDS011;5416;59.258;18.128;2023-07-29T13:01:30;3.80;;;3.70;;
10729;SDS011;5416;59.258;18.128;2023-07-29T13:03:57;4.13;;;4.00;;
10729;SDS011;5416;59.258;18.128;2023-07-29T13:06:26;4.00;;;3.90;;
10729;SDS011;5416;59.258;18.128;2023-07-29T13:08:53;3.97;;;3.88;;
10729;SDS011;5416;59.258;18.128;2023-07-29T13:11:21;3.25;;;3.15;;
10729;SDS011;5416;59.258;18.128;2023-07-29T13:13:49;9.02;;;8.73;;
10729;SDS011;5416;59.258;18.128;2023-07-29T13:16:16;4.13;;;4.03;;
10729;SDS011;5416;59.258;18.128;2023-07-29T13:18:43;5.00;;;4.80;;
10729;SDS011;5416;59.258;18.128;2023-07-29T13:21:11;4.45;;;4.35;;
10729;SDS011;5416;59.258;18.128;2023-07-29T13:23:39;4.47;;;4.38;;
10729;SDS011;5416;59.258;18.128;2023-07-29T13:26:07;3.97;;;3.88;;
10729;SDS011;5416;59.258;18.128;2023-07-29T13:28:34;4.38;;;4.28;;
10729;SDS011;5416;59.258;18.128;2023-07-29T13:31:01;4.50;;;4.40;;
10729;SDS011;5416;59.258;18.128;2023-07-29T13:33:29;4.20;;;4.10;;
10729;SDS011;5416;59.258;18.128;2023-07-29T13:35:59;4.13;;;4.03;;
10729;SDS011;5416;59.258;18.128;2023-07-29T13:38:27;4.93;;;4.73;;
10729;SDS011;5416;59.258;18.128;2023-07-29T13:40:56;4.38;;;4.28;;
10729;SDS011;5416;59.258;18.128;2023-07-29T13:43:24;4.78;;;4.57;;
10729;SDS011;5416;59.258;18.128;2023-07-29T13:45:51;4.18;;;4.07;;
10729;SDS011;5416;59.258;18.128;2023-07-29T13:48:18;4.30;;;4.20;;
10729;SDS011;5416;59.258;18.128;2023-07-29T13:50:45;4.38;;;4.28;;
10729;SDS011;5416;59.258;18.128;2023-07-29T13:53:13;4.43;;;4.32;;
10729;SDS011;5416;59.258;18.128;2023-07-29T13:55:40;4.10;;;4.00;;
10729;SDS011;5416;59.258;18.128;2023-07-29T13:58:09;4.10;;;4.00;;
10729;SDS011;5416;59.258;18.128;2023-07-29T14:00:36;4.20;;;4.10;;
10729;SDS011;5416;59.258;18.128;2023-07-29T14:03:03;4.55;;;4.40;;
10729;SDS011;5416;59.258;18.128;2023-07-29T14:05:30;4.50;;;4.40;;
10729;SDS011;5416;59.258;18.128;2023-07-29T14:07:58;4.72;;;4.55;;
10729;SDS011;5416;59.258;18.128;2023-07-29T14:10:25;4.97;;;4.78;;
10729;SDS011;5416;59.258;18.128;2023-07-29T14:12:52;4.97;;;4.77;;
10729;SDS011;5416;59.258;18.128;2023-07-29T14:15:21;4.22;;;4.13;;
10729;SDS011;5416;59.258;18.128;2023-07-29T14:17:49;4.35;;;4.25;;
10729;SDS011;5416;59.258;18.128;2023-07-29T14:20:16;4.30;;;4.20;;
10729;SDS011;5416;59.258;18.128;2023-07-29T14:22:44;4.40;;;4.30;;
10729;SDS011;5416;59.258;18.128;2023-07-29T14:25:11;5.18;;;4.97;;
10729;SDS011;5416;59.258;18.128;2023-07-29T14:27:39;4.88;;;4.68;;
10729;SDS011;5416;59.258;18.128;2023-07-29T14:30:07;4.40;;;4.30;;
10729;SDS011;5416;59.258;18.128;2023-07-29T14:32:36;4.55;;;4.43;;
10729;SDS011;5416;59.258;18.128;2023-07-29T14:35:04;4.13;;;4.03;;
10729;SDS011;5416;59.258;18.128;2023-07-29T14:37:32;3.88;;;3.78;;
10729;SDS011;5416;59.258;18.128;2023-07-29T14:40:00;4.20;;;4.10;;
10729;SDS011;5416;59.258;18.128;2023-07-29T14:42:27;4.60;;;4.45;;
10729;SDS011;5416;59.258;18.128;2023-07-29T14:44:55;4.78;;;4.57;;
10729;SDS011;5416;59.258;18.128;2023-07-29T14:47:22;4.22;;;4.13;;
10729;SDS011;5416;59.258;18.128;2023-07-29T14:49:51;4.30;;;4.20;;
10729;SDS011;5416;59.258;18.128;2023-07-29T14:52:18;4.45;;;4.35;;